createdAt,value
2022-10-14T00:01:17.644Z,13.05
2022-10-14T00:03:46.419Z,13.11
2022-10-14T00:06:19.046Z,13.02
2022-10-14T00:08:48.459Z,13.00
2022-10-14T00:11:18.728Z,13.07
2022-10-14T00:13:47.347Z,13.17
2022-10-14T00:16:20.495Z,12.95
2022-10-14T00:18:49.098Z,13.08
2022-10-14T00:21:18.629Z,13.18
2022-10-14T00:23:47.430Z,12.98
2022-10-14T00:26:17.094Z,13.07
2022-10-14T00:28:45.667Z,13.04
2022-10-14T00:31:14.195Z,13.01
2022-10-14T00:33:43.878Z,12.96
2022-10-14T00:36:14.337Z,12.89
2022-10-14T00:38:45.402Z,12.87
2022-10-14T00:41:15.058Z,13.03
2022-10-14T00:43:56.778Z,12.93
2022-10-14T00:46:25.132Z,12.93
2022-10-14T00:49:01.938Z,12.98
2022-10-14T00:51:30.069Z,12.84
2022-10-14T00:53:59.645Z,12.93
2022-10-14T00:56:30.122Z,12.96
2022-10-14T00:58:58.620Z,12.86
2022-10-14T01:01:26.776Z,12.83
2022-10-14T01:03:54.892Z,12.95
2022-10-14T01:06:37.437Z,12.85
2022-10-14T01:09:11.932Z,12.73
2022-10-14T01:11:43.935Z,12.73
2022-10-14T01:14:18.015Z,12.64
2022-10-14T01:16:53.192Z,12.66
2022-10-14T01:19:38.486Z,12.56
2022-10-14T01:22:11.507Z,12.56
2022-10-14T01:24:51.919Z,12.39
2022-10-14T01:27:49.565Z,12.43
2022-10-14T01:30:20.428Z,12.41
2022-10-14T01:32:54.186Z,12.50
2022-10-14T01:35:27.511Z,12.64
2022-10-14T01:37:59.066Z,12.68
2022-10-14T01:40:45.713Z,12.67
2022-10-14T01:43:14.696Z,12.68
2022-10-14T01:45:45.119Z,12.79
2022-10-14T01:48:14.991Z,12.57
2022-10-14T01:50:45.169Z,12.52
2022-10-14T01:53:16.945Z,12.61
2022-10-14T01:55:47.652Z,12.51
2022-10-14T01:58:18.191Z,12.59
2022-10-14T02:00:48.920Z,12.62
2022-10-14T02:03:17.006Z,12.52
2022-10-14T02:05:49.567Z,12.63
2022-10-14T02:08:22.400Z,12.72
2022-10-14T02:11:02.577Z,12.51
2022-10-14T02:13:46.786Z,12.59
2022-10-14T02:16:25.577Z,12.63
2022-10-14T02:18:59.851Z,12.55
2022-10-14T02:21:32.677Z,12.63
2022-10-14T02:24:06.870Z,12.51
2022-10-14T02:26:35.740Z,12.62
2022-10-14T02:29:05.126Z,12.38
2022-10-14T02:31:37.297Z,12.47
2022-10-14T02:34:07.635Z,12.45
2022-10-14T02:36:38.520Z,12.62
2022-10-14T02:39:07.905Z,12.59
2022-10-14T02:41:39.069Z,12.64
2022-10-14T02:44:09.452Z,12.49
2022-10-14T02:46:40.515Z,12.53
2022-10-14T02:49:10.740Z,12.52
2022-10-14T02:51:39.120Z,12.53
2022-10-14T02:54:08.254Z,12.41
2022-10-14T02:56:36.448Z,12.53
2022-10-14T02:59:04.875Z,12.46
2022-10-14T03:01:37.297Z,12.20
2022-10-14T03:04:08.205Z,12.27
2022-10-14T03:06:37.224Z,12.38
2022-10-14T03:09:05.431Z,12.54
2022-10-14T03:11:36.563Z,12.30
2022-10-14T03:14:08.028Z,12.30
2022-10-14T03:16:36.066Z,12.39
2022-10-14T03:19:04.797Z,12.25
2022-10-14T03:21:49.805Z,12.49
2022-10-14T03:24:21.066Z,12.64
2022-10-14T03:27:00.608Z,12.40
2022-10-14T03:29:28.988Z,12.51
2022-10-14T03:32:12.177Z,12.51
2022-10-14T03:35:03.306Z,12.58
2022-10-14T03:37:32.719Z,12.49
2022-10-14T03:40:00.763Z,12.42
2022-10-14T03:42:29.021Z,12.42
2022-10-14T03:44:57.337Z,12.15
2022-10-14T03:47:29.010Z,12.52
2022-10-14T03:49:57.056Z,12.59
2022-10-14T03:52:36.261Z,12.53
2022-10-14T03:55:27.240Z,12.60
2022-10-14T03:57:57.054Z,12.68
2022-10-14T04:00:25.163Z,12.64
2022-10-14T04:03:05.865Z,12.66
2022-10-14T04:05:38.863Z,12.49
2022-10-14T04:08:14.077Z,12.53
2022-10-14T04:10:47.438Z,12.67
2022-10-14T04:13:16.077Z,12.63
2022-10-14T04:15:44.148Z,12.67
2022-10-14T04:18:17.783Z,12.60
2022-10-14T04:20:46.725Z,12.70
2022-10-14T04:23:17.978Z,12.63
2022-10-14T04:25:48.362Z,12.50
2022-10-14T04:28:17.344Z,12.56
2022-10-14T04:31:01.055Z,12.48
2022-10-14T04:33:36.627Z,12.57
2022-10-14T04:36:16.120Z,12.56
2022-10-14T04:38:46.336Z,12.63
2022-10-14T04:41:14.547Z,12.56
2022-10-14T04:43:48.333Z,12.55
2022-10-14T04:46:39.484Z,12.61
2022-10-14T04:49:09.242Z,12.53
2022-10-14T04:51:41.581Z,12.61
2022-10-14T04:54:19.115Z,12.51
2022-10-14T04:57:05.457Z,12.63
2022-10-14T04:59:35.092Z,12.55
2022-10-14T05:02:06.097Z,12.51
2022-10-14T05:04:40.525Z,12.46
2022-10-14T05:07:09.637Z,12.50
2022-10-14T05:09:40.200Z,12.56
2022-10-14T05:12:20.484Z,12.67
2022-10-14T05:14:55.108Z,12.74
2022-10-14T05:17:34.152Z,12.70
2022-10-14T05:20:02.269Z,12.81
2022-10-14T05:22:30.898Z,12.68
2022-10-14T05:25:00.305Z,12.83
2022-10-14T05:27:29.308Z,12.79
2022-10-14T05:29:59.222Z,12.53
2022-10-14T05:32:27.735Z,12.66
2022-10-14T05:35:02.171Z,12.84
2022-10-14T05:37:36.375Z,12.74
2022-10-14T05:40:06.973Z,12.81
2022-10-14T05:42:37.476Z,13.01
2022-10-14T05:45:06.310Z,13.02
2022-10-14T05:47:37.794Z,12.84
2022-10-14T05:50:14.840Z,12.89
2022-10-14T05:52:45.455Z,12.85
2022-10-14T05:55:26.488Z,12.98
2022-10-14T05:57:58.908Z,12.96
2022-10-14T06:00:32.953Z,12.83
2022-10-14T06:03:06.189Z,13.04
2022-10-14T06:05:37.547Z,13.06
2022-10-14T06:08:06.206Z,13.03
2022-10-14T06:10:38.972Z,13.00
2022-10-14T06:13:07.076Z,12.79
2022-10-14T06:15:38.041Z,12.95
2022-10-14T06:18:06.738Z,12.98
2022-10-14T06:20:35.016Z,12.76
2022-10-14T06:23:03.515Z,12.84
2022-10-14T06:25:31.943Z,12.81
2022-10-14T06:28:05.743Z,12.74
2022-10-14T06:30:34.139Z,12.83
2022-10-14T06:33:02.205Z,12.99
2022-10-14T06:35:30.324Z,13.03
2022-10-14T06:37:58.897Z,12.88
2022-10-14T06:40:27.007Z,12.97
2022-10-14T06:42:55.035Z,12.96
2022-10-14T06:45:24.425Z,12.90
2022-10-14T06:47:52.471Z,12.93
2022-10-14T06:50:20.541Z,13.00
2022-10-14T06:52:48.850Z,12.89
2022-10-14T06:55:17.566Z,13.09
2022-10-14T06:57:45.755Z,13.15
2022-10-14T07:00:14.555Z,13.07
2022-10-14T07:02:44.650Z,13.21
2022-10-14T07:05:13.294Z,13.15
2022-10-14T07:07:41.415Z,13.26
2022-10-14T07:10:10.309Z,13.22
2022-10-14T07:12:38.385Z,13.28
2022-10-14T07:15:07.395Z,13.23
2022-10-14T07:17:35.439Z,13.27
2022-10-14T07:20:05.417Z,13.33
2022-10-14T07:22:38.847Z,13.25
2022-10-14T07:25:08.380Z,13.20
2022-10-14T07:27:36.652Z,13.26
2022-10-14T07:30:05.798Z,13.21
2022-10-14T07:32:36.993Z,13.35
2022-10-14T07:35:07.558Z,13.24
2022-10-14T07:37:35.696Z,13.23
2022-10-14T07:40:04.245Z,13.23
2022-10-14T07:42:32.328Z,13.24
2022-10-14T07:45:00.966Z,13.22
2022-10-14T07:47:29.087Z,13.30
2022-10-14T07:49:57.255Z,13.33
2022-10-14T07:52:26.650Z,13.45
2022-10-14T07:54:54.670Z,13.50
2022-10-14T07:57:23.776Z,13.40
2022-10-14T07:59:53.081Z,13.51
2022-10-14T08:02:21.498Z,13.57
2022-10-14T08:04:53.659Z,13.66
2022-10-14T08:07:21.976Z,13.64
2022-10-14T08:09:53.704Z,13.76
2022-10-14T08:12:22.420Z,13.63
2022-10-14T08:14:50.791Z,13.68
2022-10-14T08:17:18.936Z,13.74
2022-10-14T08:19:47.162Z,13.81
2022-10-14T08:22:15.339Z,13.79
2022-10-14T08:24:44.394Z,13.69
2022-10-14T08:27:13.887Z,13.80
2022-10-14T08:29:41.955Z,13.88
2022-10-14T08:32:10.045Z,13.84
2022-10-14T08:34:38.112Z,13.83
2022-10-14T08:37:06.214Z,13.90
2022-10-14T08:39:34.376Z,13.91
2022-10-14T08:42:29.544Z,13.95
2022-10-14T08:44:59.320Z,14.06
2022-10-14T08:47:32.869Z,13.92
2022-10-14T08:50:04.154Z,14.06
2022-10-14T08:52:37.725Z,14.13
2022-10-14T08:55:20.504Z,14.41
2022-10-14T08:57:53.483Z,14.56
2022-10-14T09:00:21.902Z,14.54
2022-10-14T09:02:51.846Z,14.64
2022-10-14T09:05:22.834Z,14.74
2022-10-14T09:07:52.479Z,14.68
2022-10-14T09:10:32.628Z,14.73
2022-10-14T09:13:08.837Z,14.82
2022-10-14T09:15:40.665Z,14.78
2022-10-14T09:18:21.600Z,14.77
2022-10-14T09:20:49.968Z,14.89
2022-10-14T09:23:19.709Z,14.91
2022-10-14T09:25:56.974Z,15.01
2022-10-14T09:28:38.987Z,14.97
2022-10-14T09:31:08.620Z,14.90
2022-10-14T09:33:42.181Z,15.08
2022-10-14T09:36:14.688Z,15.11
2022-10-14T09:38:42.910Z,15.16
2022-10-14T09:41:13.805Z,15.09
2022-10-14T09:44:18.692Z,15.19
2022-10-14T09:46:52.447Z,15.28
2022-10-14T09:49:23.808Z,15.34
2022-10-14T09:51:53.032Z,15.19
2022-10-14T09:54:24.695Z,15.15
2022-10-14T09:57:00.126Z,15.27
2022-10-14T09:59:30.054Z,15.29
2022-10-14T10:02:00.630Z,15.57
2022-10-14T10:04:35.488Z,15.50
2022-10-14T10:07:06.915Z,15.18
2022-10-14T10:09:35.374Z,15.25
2022-10-14T10:12:24.084Z,15.27
2022-10-14T10:14:59.471Z,15.35
2022-10-14T10:17:28.791Z,15.33
2022-10-14T10:20:12.607Z,15.24
2022-10-14T10:22:41.877Z,15.22
2022-10-14T10:25:28.530Z,15.08
2022-10-14T10:27:59.379Z,15.25
2022-10-14T10:30:32.355Z,15.13
2022-10-14T10:33:23.290Z,14.99
2022-10-14T10:36:03.968Z,15.15
2022-10-14T10:38:35.408Z,15.07
2022-10-14T10:41:17.243Z,15.30
2022-10-14T10:44:04.238Z,15.42
2022-10-14T10:46:53.691Z,15.40
2022-10-14T10:49:31.172Z,15.51
2022-10-14T10:52:02.852Z,15.58
2022-10-14T10:54:39.546Z,15.57
2022-10-14T10:57:13.750Z,15.62
2022-10-14T10:59:49.683Z,15.78
2022-10-14T11:03:07.845Z,15.73
2022-10-14T11:05:53.499Z,15.82
2022-10-14T11:09:00.258Z,16.00
2022-10-14T11:11:55.403Z,16.17
2022-10-14T11:14:34.263Z,16.36
2022-10-14T11:17:08.298Z,16.58
2022-10-14T11:19:42.192Z,16.77
2022-10-14T11:22:19.582Z,16.94
2022-10-14T11:24:58.657Z,17.03
2022-10-14T11:27:32.995Z,17.10
2022-10-14T11:30:19.171Z,17.09
2022-10-14T11:33:00.810Z,17.48
2022-10-14T11:35:39.308Z,17.50
2022-10-14T11:38:23.213Z,17.67
2022-10-14T11:40:56.728Z,17.38
2022-10-14T11:43:32.822Z,17.35
2022-10-14T11:46:02.389Z,17.13
2022-10-14T11:48:35.641Z,17.11
2022-10-14T11:51:12.446Z,16.92
2022-10-14T11:53:47.064Z,16.98
2022-10-14T11:56:25.537Z,17.01
2022-10-14T11:58:55.140Z,17.26
2022-10-14T12:01:27.661Z,17.23
2022-10-14T12:04:00.431Z,17.11
2022-10-14T12:06:34.671Z,17.15
2022-10-14T12:09:05.551Z,17.09
2022-10-14T12:11:36.745Z,17.23
2022-10-14T12:14:10.395Z,17.11
2022-10-14T12:16:40.887Z,17.29
2022-10-14T12:19:10.084Z,17.15
2022-10-14T12:21:49.737Z,17.00
2022-10-14T12:24:20.997Z,16.92
2022-10-14T12:26:52.166Z,17.05
2022-10-14T12:29:22.279Z,17.12
2022-10-14T12:31:53.144Z,17.07
2022-10-14T12:34:38.535Z,17.07
2022-10-14T12:37:43.189Z,17.09
2022-10-14T12:40:24.724Z,16.98
2022-10-14T12:43:05.403Z,16.95
2022-10-14T12:45:35.923Z,16.90
2022-10-14T12:48:08.331Z,16.90
2022-10-14T12:50:38.753Z,17.01
2022-10-14T12:53:17.733Z,17.06
2022-10-14T12:55:50.146Z,17.02
2022-10-14T12:58:25.193Z,17.04
2022-10-14T13:01:01.791Z,17.01
2022-10-14T13:03:33.732Z,17.05
2022-10-14T13:06:28.607Z,16.98
2022-10-14T13:09:32.641Z,16.97
2022-10-14T13:12:34.247Z,16.84
2022-10-14T13:15:02.706Z,16.86
2022-10-14T13:17:44.692Z,16.83
2022-10-14T13:20:46.278Z,16.75
2022-10-14T13:23:23.148Z,16.68
2022-10-14T13:25:53.821Z,16.71
2022-10-14T13:28:25.653Z,16.74
2022-10-14T13:31:00.427Z,16.69
2022-10-14T13:33:33.566Z,16.69
2022-10-14T13:36:10.227Z,16.69
2022-10-14T13:38:40.140Z,16.56
2022-10-14T13:41:17.078Z,16.52
2022-10-14T13:43:45.429Z,16.63
2022-10-14T13:46:16.708Z,16.63
2022-10-14T13:48:46.538Z,16.66
2022-10-14T13:51:36.441Z,16.57
2022-10-14T13:54:17.378Z,16.47
2022-10-14T13:57:13.781Z,16.49
2022-10-14T14:00:27.796Z,16.55
2022-10-14T14:02:40.835Z,16.50
2022-10-14T14:05:17.227Z,16.48
2022-10-14T14:10:39.150Z,16.54
2022-10-14T14:13:17.112Z,16.54
2022-10-14T14:15:50.545Z,16.57
2022-10-14T14:18:38.259Z,16.55
2022-10-14T14:21:18.618Z,16.59
2022-10-14T14:23:51.584Z,16.65
2022-10-14T14:26:20.701Z,16.68
2022-10-14T14:28:50.675Z,16.68
2022-10-14T14:31:42.461Z,16.69
2022-10-14T14:34:18.654Z,16.67
2022-10-14T14:36:52.055Z,16.73
2022-10-14T14:39:29.022Z,16.69
2022-10-14T14:42:00.735Z,16.70
2022-10-14T14:44:34.055Z,16.67
2022-10-14T14:47:03.848Z,16.78
2022-10-14T14:49:33.456Z,16.70
2022-10-14T14:52:02.820Z,16.61
2022-10-14T14:54:33.582Z,16.69
2022-10-14T14:57:06.052Z,16.72
2022-10-14T14:59:37.980Z,16.83
2022-10-14T15:02:13.801Z,16.75
2022-10-14T15:04:42.944Z,16.72
2022-10-14T15:07:20.998Z,16.66
2022-10-14T15:09:52.172Z,16.66
2022-10-14T15:12:22.871Z,16.69
2022-10-14T15:14:53.890Z,16.61
2022-10-14T15:17:27.711Z,16.64
2022-10-14T15:19:58.777Z,16.61
2022-10-14T15:22:36.299Z,16.56
2022-10-14T15:25:10.631Z,16.57
2022-10-14T15:27:52.903Z,16.48
2022-10-14T15:30:34.994Z,16.42
2022-10-14T15:33:14.894Z,16.37
2022-10-14T15:35:43.613Z,16.33
2022-10-14T15:38:16.630Z,16.40
2022-10-14T15:40:45.721Z,16.38
2022-10-14T15:43:17.514Z,16.31
2022-10-14T15:46:11.803Z,16.24
2022-10-14T15:48:39.200Z,16.22
2022-10-14T15:51:07.264Z,16.21
2022-10-14T15:53:36.635Z,16.22
2022-10-14T15:56:04.710Z,16.13
2022-10-14T15:58:33.806Z,16.05
2022-10-14T16:01:03.745Z,16.07
2022-10-14T16:03:36.009Z,16.03
2022-10-14T16:06:14.617Z,15.97
2022-10-14T16:08:46.582Z,16.01
2022-10-14T16:11:21.868Z,16.01
2022-10-14T16:13:53.311Z,16.01
2022-10-14T16:16:27.174Z,15.98
2022-10-14T16:18:58.565Z,15.95
2022-10-14T16:21:30.064Z,15.97
2022-10-14T16:23:59.804Z,15.92
2022-10-14T16:26:30.817Z,15.89
2022-10-14T16:29:03.730Z,15.94
2022-10-14T16:31:33.814Z,15.91
2022-10-14T16:34:03.834Z,15.91
2022-10-14T16:36:32.592Z,15.86
2022-10-14T16:39:06.027Z,15.88
2022-10-14T16:41:37.272Z,15.89
2022-10-14T16:44:05.954Z,15.84
2022-10-14T16:46:52.983Z,15.84
2022-10-14T16:49:21.105Z,15.71
2022-10-14T16:51:49.172Z,15.75
2022-10-14T16:54:17.320Z,15.73
2022-10-14T16:56:55.512Z,15.67
2022-10-14T16:59:24.732Z,15.74
2022-10-14T17:01:54.429Z,15.69
2022-10-14T17:04:23.295Z,15.64
2022-10-14T17:06:58.992Z,15.62
2022-10-14T17:09:27.261Z,15.64
2022-10-14T17:11:55.815Z,15.69
2022-10-14T17:14:24.318Z,15.72
2022-10-14T17:16:52.742Z,15.69
2022-10-14T17:19:24.384Z,15.66
2022-10-14T17:21:52.949Z,15.64
2022-10-14T17:24:22.238Z,15.60
2022-10-14T17:26:50.804Z,15.65
2022-10-14T17:29:20.821Z,15.63
2022-10-14T17:31:51.879Z,15.66
2022-10-14T17:34:20.446Z,15.65
2022-10-14T17:36:50.375Z,15.55
2022-10-14T17:39:25.878Z,15.56
2022-10-14T17:42:00.232Z,15.60
2022-10-14T17:44:29.274Z,15.56
2022-10-14T17:46:59.482Z,15.60
2022-10-14T17:49:29.485Z,15.52
2022-10-14T17:52:02.152Z,15.51
2022-10-14T17:54:35.511Z,15.39
2022-10-14T17:57:04.556Z,15.39
2022-10-14T17:59:32.786Z,15.48
2022-10-14T18:02:03.106Z,15.39
2022-10-14T18:04:34.263Z,15.31
2022-10-14T18:07:04.546Z,15.32
2022-10-14T18:09:34.059Z,15.33
2022-10-14T18:12:08.630Z,15.18
2022-10-14T18:14:38.629Z,15.25
2022-10-14T18:17:07.229Z,15.32
2022-10-14T18:19:36.153Z,15.26
2022-10-14T18:22:07.136Z,15.33
2022-10-14T18:24:38.544Z,15.18
2022-10-14T18:27:07.849Z,15.12
2022-10-14T18:29:37.114Z,15.14
2022-10-14T18:32:06.133Z,15.17
2022-10-14T18:34:35.248Z,15.16
2022-10-14T18:37:03.750Z,15.16
2022-10-14T18:39:44.783Z,15.16
2022-10-14T18:42:19.922Z,15.15
2022-10-14T18:44:50.389Z,15.16
2022-10-14T18:47:20.208Z,15.11
2022-10-14T18:49:49.811Z,15.05
2022-10-14T18:52:21.885Z,15.11
2022-10-14T18:54:54.967Z,15.10
2022-10-14T18:57:25.100Z,15.09
2022-10-14T18:59:57.811Z,15.12
2022-10-14T19:02:32.649Z,14.99
2022-10-14T19:05:08.290Z,15.04
2022-10-14T19:07:39.193Z,15.03
2022-10-14T19:10:28.756Z,14.93
2022-10-14T19:12:57.838Z,14.96
2022-10-14T19:15:27.184Z,14.93
2022-10-14T19:17:59.378Z,14.93
2022-10-14T19:20:29.060Z,14.98
2022-10-14T19:22:59.557Z,14.95
2022-10-14T19:25:38.142Z,14.78
2022-10-14T19:28:10.175Z,14.90
2022-10-14T19:30:49.691Z,14.84
2022-10-14T19:33:27.395Z,14.85
2022-10-14T19:36:00.318Z,14.80
2022-10-14T19:38:32.097Z,14.82
2022-10-14T19:41:04.703Z,14.87
2022-10-14T19:43:35.102Z,14.75
2022-10-14T19:46:08.225Z,14.65
2022-10-14T19:48:41.140Z,14.61
2022-10-14T19:51:14.696Z,14.65
2022-10-14T19:53:46.911Z,14.71
2022-10-14T19:56:16.774Z,14.75
2022-10-14T19:58:46.596Z,14.63
2022-10-14T20:01:18.798Z,14.54
2022-10-14T20:03:49.004Z,14.52
2022-10-14T20:06:18.924Z,14.53
2022-10-14T20:08:48.643Z,14.53
2022-10-14T20:11:22.446Z,14.44
2022-10-14T20:13:54.475Z,14.58
2022-10-14T20:16:22.789Z,14.41
2022-10-14T20:18:53.583Z,14.55
2022-10-14T20:21:21.745Z,14.52
2022-10-14T20:23:51.448Z,14.43
2022-10-14T20:26:22.844Z,14.39
2022-10-14T20:28:51.393Z,14.21
2022-10-14T20:31:21.896Z,14.37
2022-10-14T20:33:50.757Z,14.34
2022-10-14T20:36:24.039Z,14.22
2022-10-14T20:38:54.154Z,14.16
2022-10-14T20:41:32.638Z,14.28
2022-10-14T20:44:04.808Z,14.26
2022-10-14T20:46:33.971Z,14.35
2022-10-14T20:49:05.279Z,14.18
2022-10-14T20:51:41.857Z,14.19
2022-10-14T20:54:12.629Z,14.08
2022-10-14T20:56:44.262Z,14.22
2022-10-14T20:59:14.942Z,14.00
2022-10-14T21:01:45.649Z,14.02
2022-10-14T21:04:14.015Z,14.00
2022-10-14T21:06:42.828Z,14.02
2022-10-14T21:09:12.248Z,14.11
2022-10-14T21:11:45.119Z,14.11
2022-10-14T21:14:15.906Z,14.08
2022-10-14T21:16:47.505Z,13.98
2022-10-14T21:19:18.975Z,13.97
2022-10-14T21:21:49.386Z,13.85
2022-10-14T21:24:31.701Z,14.00
2022-10-14T21:27:03.682Z,13.80
2022-10-14T21:29:32.953Z,13.88
2022-10-14T21:32:02.702Z,13.81
2022-10-14T21:34:31.235Z,13.96
2022-10-14T21:37:02.189Z,13.96
2022-10-14T21:39:30.874Z,13.89
2022-10-14T21:42:03.994Z,13.95
2022-10-14T21:44:32.198Z,13.95
2022-10-14T21:47:02.550Z,13.83
2022-10-14T21:49:30.626Z,13.66
2022-10-14T21:52:01.149Z,13.59
2022-10-14T21:54:30.385Z,13.69
2022-10-14T21:57:01.732Z,13.68
2022-10-14T21:59:32.189Z,13.71
2022-10-14T22:02:03.596Z,13.63
2022-10-14T22:04:34.546Z,13.78
2022-10-14T22:07:06.788Z,13.75
2022-10-14T22:09:36.042Z,13.72
2022-10-14T22:12:09.611Z,13.83
2022-10-14T22:14:38.166Z,13.61
2022-10-14T22:17:12.593Z,13.57
2022-10-14T22:19:40.937Z,13.57
2022-10-14T22:22:12.252Z,13.66
2022-10-14T22:24:40.544Z,13.61
2022-10-14T22:27:20.805Z,13.49
2022-10-14T22:29:52.692Z,13.62
2022-10-14T22:32:22.613Z,13.72
2022-10-14T22:34:54.741Z,13.74
2022-10-14T22:37:26.286Z,13.74
2022-10-14T22:39:57.359Z,13.65
2022-10-14T22:45:03.166Z,13.75
2022-10-14T22:47:33.857Z,13.55
2022-10-14T22:50:04.412Z,13.66
2022-10-14T22:52:33.678Z,13.69
2022-10-14T22:55:01.805Z,13.63
2022-10-14T22:57:31.263Z,13.70
2022-10-14T22:59:59.400Z,13.74
2022-10-14T23:02:27.429Z,13.55
2022-10-14T23:04:55.498Z,13.56
2022-10-14T23:07:23.816Z,13.64
2022-10-14T23:09:51.997Z,13.61
2022-10-14T23:12:20.317Z,13.62
2022-10-14T23:14:51.352Z,13.49
2022-10-14T23:17:19.479Z,13.36
2022-10-14T23:19:47.826Z,13.54
2022-10-14T23:22:15.879Z,13.45
2022-10-14T23:24:43.915Z,13.54
2022-10-14T23:27:11.947Z,13.37
2022-10-14T23:29:40.030Z,13.52
2022-10-14T23:32:09.553Z,13.54
2022-10-14T23:34:37.645Z,13.45
2022-10-14T23:37:05.710Z,13.37
2022-10-14T23:39:33.880Z,13.47
2022-10-14T23:42:01.920Z,13.51
2022-10-14T23:44:31.628Z,13.47
2022-10-14T23:46:59.660Z,13.43
2022-10-14T23:49:29.070Z,13.56
2022-10-14T23:51:57.229Z,13.48
2022-10-14T23:54:25.667Z,13.35
2022-10-14T23:56:53.791Z,13.41
2022-10-14T23:59:21.850Z,13.48
